createdAt,value
2018-07-28T10:13:39.198Z,31.53
2018-07-28T10:16:07.572Z,32.25
2018-07-28T10:18:35.838Z,32.49
2018-07-28T10:21:04.317Z,32.33
2018-07-28T10:23:32.625Z,32.13
2018-07-28T10:26:00.982Z,32.25
2018-07-28T10:28:29.287Z,32.05
2018-07-28T10:30:57.776Z,32.65
2018-07-28T10:33:26.130Z,32.35
2018-07-28T10:35:54.463Z,32.29
2018-07-28T10:38:22.781Z,32.34
2018-07-28T10:40:51.090Z,32.06
2018-07-28T10:43:19.449Z,32.56
2018-07-28T10:45:47.760Z,32.26
2018-07-28T10:48:18.154Z,32.42
2018-07-28T10:50:46.529Z,32.61
2018-07-28T10:53:14.817Z,32.74
2018-07-28T10:55:43.075Z,32.36
2018-07-28T10:58:12.401Z,32.39
2018-07-28T11:00:40.678Z,32.41
2018-07-28T11:03:08.991Z,32.86
2018-07-28T11:05:37.264Z,33.21
2018-07-28T11:08:05.645Z,33.03
2018-07-28T11:10:33.956Z,33.15
2018-07-28T11:13:03.277Z,33.77
2018-07-28T11:15:31.557Z,32.35
2018-07-28T11:18:03.146Z,32.58
2018-07-28T11:20:31.441Z,32.81
2018-07-28T11:23:00.805Z,33.19
2018-07-28T11:25:30.177Z,33.36
2018-07-28T11:28:00.509Z,34.18
2018-07-28T11:30:28.782Z,33.32
2018-07-28T11:33:08.962Z,33.57
2018-07-28T11:35:49.540Z,33.61
2018-07-28T11:38:31.201Z,33.67
2018-07-28T11:41:11.645Z,33.65
2018-07-28T11:43:51.573Z,33.91
2018-07-28T11:46:19.961Z,34.07
2018-07-28T11:48:49.284Z,34.10
2018-07-28T11:51:18.593Z,33.07
2018-07-28T11:53:46.937Z,32.90
2018-07-28T11:56:16.208Z,33.73
2018-07-28T11:58:48.187Z,33.75
2018-07-28T12:01:17.502Z,34.41
2018-07-28T12:03:45.788Z,34.34
2018-07-28T12:06:14.269Z,34.11
2018-07-28T12:08:42.560Z,32.99
2018-07-28T12:11:10.837Z,33.57
2018-07-28T12:13:42.544Z,33.30
2018-07-28T12:16:10.828Z,33.73
2018-07-28T12:18:39.247Z,33.72
2018-07-28T12:21:07.532Z,33.84
2018-07-28T12:23:35.813Z,33.61
2018-07-28T12:26:04.154Z,33.99
2018-07-28T12:28:33.457Z,33.64
2018-07-28T12:31:02.767Z,33.54
2018-07-28T12:33:31.049Z,34.19
2018-07-28T12:35:59.355Z,33.90
2018-07-28T12:38:28.696Z,33.74
2018-07-28T12:40:57.005Z,33.92
2018-07-28T12:43:25.356Z,34.75
2018-07-28T12:45:58.284Z,35.15
2018-07-28T12:48:26.589Z,34.17
2018-07-28T12:50:54.882Z,34.48
2018-07-28T12:53:23.201Z,33.80
2018-07-28T12:55:51.477Z,34.60
2018-07-28T12:58:21.790Z,34.98
2018-07-28T13:00:51.113Z,34.63
2018-07-28T13:03:19.409Z,34.17
2018-07-28T13:05:48.760Z,34.63
2018-07-28T13:08:18.096Z,33.90
2018-07-28T13:10:46.360Z,34.76
2018-07-28T13:13:14.677Z,35.09
2018-07-28T13:15:43.993Z,35.37
2018-07-28T13:18:13.421Z,35.04
2018-07-28T13:20:41.693Z,34.81
2018-07-28T13:23:10.013Z,35.49
2018-07-28T13:25:38.281Z,36.10
2018-07-28T13:28:06.613Z,35.27
2018-07-28T13:30:34.896Z,35.66
2018-07-28T13:33:03.337Z,35.82
2018-07-28T13:35:31.618Z,35.06
2018-07-28T13:37:59.930Z,35.27
2018-07-28T13:40:28.221Z,34.44
2018-07-28T13:42:56.533Z,33.84
2018-07-28T13:45:24.876Z,33.82
2018-07-28T13:47:54.240Z,34.20
2018-07-28T13:50:22.788Z,34.56
2018-07-28T13:52:51.060Z,34.28
2018-07-28T13:55:20.426Z,33.80
2018-07-28T13:57:48.717Z,33.98
2018-07-28T14:00:17.116Z,34.37
2018-07-28T14:02:46.379Z,34.50
2018-07-28T14:05:27.913Z,35.14
2018-07-28T14:07:58.273Z,34.90
2018-07-28T14:10:26.576Z,34.81
2018-07-28T14:12:56.907Z,34.32
2018-07-28T14:15:25.320Z,33.59
2018-07-28T14:17:53.544Z,33.49
2018-07-28T14:20:22.981Z,33.30
2018-07-28T14:22:52.459Z,33.00
2018-07-28T14:25:21.876Z,33.25
2018-07-28T14:27:51.335Z,33.12
2018-07-28T14:30:19.628Z,32.94
2018-07-28T14:32:48.005Z,32.79
2018-07-28T14:35:18.353Z,32.73
2018-07-28T14:37:46.771Z,32.58
2018-07-28T14:40:17.161Z,32.62
2018-07-28T14:42:45.490Z,32.63
2018-07-28T14:45:13.805Z,32.43
2018-07-28T14:47:44.260Z,31.91
2018-07-28T14:50:12.710Z,28.09
2018-07-28T14:52:41.077Z,27.02
2018-07-28T14:55:09.446Z,26.25
2018-07-28T14:57:37.725Z,25.35
2018-07-28T15:00:07.145Z,24.82
2018-07-28T15:02:35.460Z,24.55
2018-07-28T15:05:03.757Z,24.22
2018-07-28T15:07:32.143Z,23.93
2018-07-28T15:10:00.429Z,23.10
2018-07-28T15:12:28.752Z,21.39
2018-07-28T15:14:57.020Z,20.98
2018-07-28T15:17:25.324Z,20.97
2018-07-28T15:19:53.592Z,20.97
2018-07-28T15:22:21.953Z,21.00
2018-07-28T15:24:50.389Z,20.98
2018-07-28T15:27:18.648Z,21.11
2018-07-28T15:29:47.067Z,21.22
2018-07-28T15:32:15.361Z,21.30
2018-07-28T15:34:43.676Z,21.32
2018-07-28T15:37:11.949Z,21.39
2018-07-28T15:39:40.360Z,21.33
2018-07-28T15:42:08.638Z,21.38
2018-07-28T15:44:36.941Z,21.38
2018-07-28T15:47:05.376Z,21.43
2018-07-28T15:49:33.914Z,21.48
2018-07-28T15:52:02.109Z,21.43
2018-07-28T15:54:30.456Z,21.39
2018-07-28T15:56:59.953Z,21.34
2018-07-28T15:59:28.321Z,21.39
2018-07-28T16:01:56.717Z,21.44
2018-07-28T16:04:25.099Z,21.47
2018-07-28T16:06:53.404Z,21.44
2018-07-28T16:09:21.826Z,21.37
2018-07-28T16:11:52.145Z,21.42
2018-07-28T16:14:20.461Z,21.60
2018-07-28T16:16:49.845Z,21.45
2018-07-28T16:19:18.186Z,21.74
2018-07-28T16:21:46.560Z,21.90
2018-07-28T16:24:15.865Z,22.12
2018-07-28T16:26:44.190Z,22.08
2018-07-28T16:29:12.477Z,22.31
2018-07-28T16:31:40.825Z,22.40
2018-07-28T16:34:10.133Z,22.46
2018-07-28T16:36:38.449Z,22.43
2018-07-28T16:39:08.633Z,22.06
2018-07-28T16:41:38.002Z,22.03
2018-07-28T16:44:06.312Z,22.09
2018-07-28T16:46:34.660Z,22.21
2018-07-28T16:49:04.301Z,22.19
2018-07-28T16:51:32.661Z,22.15
2018-07-28T16:54:01.055Z,22.29
2018-07-28T16:56:29.440Z,22.46
2018-07-28T16:58:58.813Z,22.36
2018-07-28T17:01:27.145Z,22.64
2018-07-28T17:03:55.446Z,22.72
2018-07-28T17:06:24.106Z,23.07
2018-07-28T17:08:52.405Z,22.88
2018-07-28T17:11:20.701Z,22.80
2018-07-28T17:13:49.006Z,23.10
2018-07-28T17:16:17.309Z,23.20
2018-07-28T17:18:45.570Z,23.30
2018-07-28T17:21:13.825Z,23.37
2018-07-28T17:23:42.129Z,23.71
2018-07-28T17:26:10.522Z,23.79
2018-07-28T17:28:39.981Z,23.60
2018-07-28T17:31:08.843Z,23.68
2018-07-28T17:33:37.196Z,23.67
2018-07-28T17:36:05.486Z,23.81
2018-07-28T17:38:33.797Z,23.66
2018-07-28T17:41:02.438Z,23.55
2018-07-28T17:43:32.660Z,23.52
2018-07-28T17:46:01.052Z,23.32
2018-07-28T17:48:29.369Z,23.29
2018-07-28T17:50:57.725Z,23.44
2018-07-28T17:53:26.197Z,23.46
2018-07-28T17:55:54.401Z,23.12
2018-07-28T17:58:22.709Z,23.07
2018-07-28T18:00:51.104Z,22.78
2018-07-28T18:03:19.409Z,22.65
2018-07-28T18:05:47.685Z,22.47
2018-07-28T18:08:15.973Z,22.52
2018-07-28T18:10:44.257Z,22.52
2018-07-28T18:13:12.593Z,22.63
2018-07-28T18:15:40.857Z,22.31
2018-07-28T18:18:09.161Z,22.53
2018-07-28T18:20:37.447Z,22.78
2018-07-28T18:23:06.188Z,22.87
2018-07-28T18:25:34.519Z,22.82
2018-07-28T18:28:03.004Z,22.84
2018-07-28T18:30:31.424Z,22.78
2018-07-28T18:32:59.689Z,22.90
2018-07-28T18:35:28.023Z,22.76
2018-07-28T18:37:57.350Z,22.77
2018-07-28T18:40:25.710Z,22.73
2018-07-28T18:42:53.976Z,22.80
2018-07-28T18:45:22.309Z,22.67
2018-07-28T18:47:50.601Z,22.49
2018-07-28T18:50:18.940Z,22.51
2018-07-28T18:52:47.204Z,22.57
2018-07-28T18:55:15.549Z,22.62
2018-07-28T18:57:43.811Z,22.42
2018-07-28T19:00:12.173Z,22.32
2018-07-28T19:02:40.436Z,22.16
2018-07-28T19:05:08.828Z,22.24
2018-07-28T19:07:37.124Z,22.14
2018-07-28T19:10:05.486Z,22.13
2018-07-28T19:12:39.017Z,22.09
2018-07-28T19:15:07.325Z,22.00
2018-07-28T19:17:40.978Z,21.97
2018-07-28T19:20:09.428Z,21.96
2018-07-28T19:22:43.185Z,21.96
2018-07-28T19:25:11.460Z,21.84
2018-07-28T19:27:40.230Z,21.82
2018-07-28T19:30:08.533Z,21.83
2018-07-28T19:32:36.800Z,21.84
2018-07-28T19:35:05.189Z,21.76
2018-07-28T19:37:33.553Z,21.73
2018-07-28T19:40:01.824Z,21.83
2018-07-28T19:42:52.182Z,21.87
2018-07-28T19:45:20.921Z,21.97
2018-07-28T19:47:49.237Z,22.02
2018-07-28T19:50:17.519Z,22.02
2018-07-28T19:52:45.812Z,21.86
2018-07-28T19:55:14.123Z,21.84
2018-07-28T19:57:42.433Z,22.20
2018-07-28T20:00:10.700Z,22.45
2018-07-28T20:02:39.097Z,22.54
2018-07-28T20:05:07.641Z,22.59
2018-07-28T20:07:36.260Z,22.81
2018-07-28T20:10:04.905Z,22.76
2018-07-28T20:12:33.281Z,22.65
2018-07-28T20:15:01.650Z,22.58
2018-07-28T20:17:29.977Z,22.62
2018-07-28T20:19:58.318Z,22.72
2018-07-28T20:22:26.681Z,22.85
2018-07-28T20:24:55.025Z,22.63
2018-07-28T20:27:23.424Z,22.54
2018-07-28T20:29:51.713Z,22.44
2018-07-28T20:32:20.227Z,22.48
2018-07-28T20:34:48.668Z,22.41
2018-07-28T20:37:17.155Z,22.43
2018-07-28T20:39:45.505Z,22.47
2018-07-28T20:42:13.890Z,22.45
2018-07-28T20:44:42.237Z,22.52
2018-07-28T20:47:10.578Z,22.47
2018-07-28T20:49:39.585Z,22.45
2018-07-28T20:52:08.734Z,22.07
2018-07-28T20:54:37.029Z,21.77
2018-07-28T20:57:05.490Z,21.74
2018-07-28T20:59:33.844Z,21.47
2018-07-28T21:02:02.289Z,21.28
2018-07-28T21:04:30.589Z,21.26
2018-07-28T21:06:58.903Z,21.19
2018-07-28T21:09:27.320Z,21.32
2018-07-28T21:11:55.762Z,21.41
2018-07-28T21:14:24.122Z,21.25
2018-07-28T21:16:52.390Z,21.31
2018-07-28T21:19:20.701Z,21.14
2018-07-28T21:21:49.003Z,21.33
2018-07-28T21:24:17.281Z,21.26
2018-07-28T21:26:45.629Z,21.23
2018-07-28T21:29:14.026Z,21.37
2018-07-28T21:31:42.293Z,21.45
2018-07-28T21:34:10.676Z,21.49
2018-07-28T21:36:38.985Z,21.41
2018-07-28T21:39:08.909Z,21.49
2018-07-28T21:41:37.216Z,21.52
2018-07-28T21:44:05.520Z,21.49
2018-07-28T21:46:33.838Z,21.45
2018-07-28T21:49:02.187Z,21.35
2018-07-28T21:51:30.585Z,21.31
2018-07-28T21:53:59.392Z,21.37
2018-07-28T21:56:27.675Z,21.37
2018-07-28T21:58:56.729Z,21.36
2018-07-28T22:01:25.101Z,21.38
2018-07-28T22:03:54.681Z,21.38
2018-07-28T22:06:22.992Z,21.38
2018-07-28T22:08:51.317Z,21.44
2018-07-28T22:11:19.581Z,21.48
2018-07-28T22:13:47.892Z,21.40
2018-07-28T22:16:16.466Z,21.49
2018-07-28T22:18:45.197Z,21.54
2018-07-28T22:21:14.032Z,21.63
2018-07-28T22:23:42.333Z,21.52
2018-07-28T22:26:10.598Z,21.42
2018-07-28T22:28:38.908Z,21.52
2018-07-28T22:31:07.220Z,21.58
2018-07-28T22:33:36.029Z,21.21
2018-07-28T22:36:04.353Z,21.25
2018-07-28T22:38:32.665Z,21.18
2018-07-28T22:41:00.937Z,21.14
2018-07-28T22:43:29.257Z,20.95
2018-07-28T22:45:57.636Z,20.73
2018-07-28T22:48:25.926Z,20.55
2018-07-28T22:50:54.228Z,20.58
2018-07-28T22:53:22.537Z,20.44
2018-07-28T22:55:50.833Z,20.48
2018-07-28T22:58:19.221Z,20.32
2018-07-28T23:00:47.520Z,20.29
2018-07-28T23:03:15.796Z,20.40
2018-07-28T23:05:44.117Z,20.27
2018-07-28T23:08:12.426Z,20.28
2018-07-28T23:10:40.745Z,20.31
2018-07-28T23:13:09.449Z,20.24
2018-07-28T23:15:37.777Z,20.24
2018-07-28T23:18:06.066Z,20.28
2018-07-28T23:20:34.381Z,20.29
2018-07-28T23:23:02.680Z,20.36
2018-07-28T23:25:31.089Z,20.21
2018-07-28T23:27:59.385Z,20.03
2018-07-28T23:30:27.696Z,20.07
2018-07-28T23:32:55.977Z,20.09
2018-07-28T23:35:24.293Z,20.17
2018-07-28T23:37:52.579Z,20.19
2018-07-28T23:40:21.136Z,20.06
2018-07-28T23:42:49.433Z,20.07
2018-07-28T23:45:19.081Z,20.07
2018-07-28T23:47:49.482Z,20.00
2018-07-28T23:50:17.785Z,19.89
2018-07-28T23:52:46.085Z,19.93
2018-07-28T23:55:14.418Z,19.89
2018-07-28T23:57:42.766Z,19.87
